Time;durP1;ratioP1;P1;durP2;ratioP2;P2;SDS_P1;SDS_P2;PMS_P1;PMS_P2;Temp;Humidity;BMP_temperature;BMP_pressure;BME280_temperature;BME280_humidity;BME280_pressure;Samples;Min_cycle;Max_cycle;Signal;HPM_P1;HPM_P2
2020/12/07 00:00:09;;;;;;;20.10;16.67;;;4.00;93.50;;;;;;5019493;28;20201;-93
2020/12/07 00:02:35;;;;;;;18.97;16.40;;;4.00;93.80;;;;;;5037872;28;20177;-93
2020/12/07 00:05:02;;;;;;;18.70;15.17;;;4.00;94.20;;;;;;5037513;28;20224;-94
2020/12/07 00:07:27;;;;;;;21.70;15.00;;;4.10;93.40;;;;;;5055100;28;20259;-93
2020/12/07 00:09:53;;;;;;;19.23;15.27;;;4.10;92.60;;;;;;5023806;28;20699;-93
2020/12/07 00:12:24;;;;;;;20.30;15.17;;;4.20;92.50;;;;;;5041968;28;20671;-94
2020/12/07 00:14:49;;;;;;;20.57;16.73;;;4.30;91.80;;;;;;5042034;28;20259;-93
2020/12/07 00:17:19;;;;;;;18.77;14.70;;;4.20;92.20;;;;;;5023918;28;20208;-94
2020/12/07 00:19:45;;;;;;;19.53;16.13;;;4.10;93.40;;;;;;5042205;28;20179;-94
2020/12/07 00:22:11;;;;;;;19.33;15.57;;;4.10;93.70;;;;;;5040594;28;20208;-94
2020/12/07 00:24:36;;;;;;;20.23;16.57;;;4.20;92.90;;;;;;5041408;28;20225;-94
2020/12/07 00:27:02;;;;;;;22.40;16.93;;;4.20;93.50;;;;;;5025204;28;20181;-94
2020/12/07 00:29:28;;;;;;;21.40;16.57;;;4.30;92.60;;;;;;5025383;28;20192;-94
2020/12/07 00:31:53;;;;;;;21.87;17.67;;;4.20;93.50;;;;;;5025673;28;20189;-93
2020/12/07 00:34:19;;;;;;;23.03;17.83;;;4.10;94.20;;;;;;5008970;28;20181;-94
2020/12/07 00:36:45;;;;;;;22.80;17.57;;;4.10;94.20;;;;;;5043379;28;20208;-94
2020/12/07 00:39:10;;;;;;;21.67;17.20;;;4.20;94.10;;;;;;5026824;28;20239;-93
2020/12/07 00:41:36;;;;;;;27.03;19.87;;;4.20;93.50;;;;;;5058399;28;20264;-93
2020/12/07 00:44:02;;;;;;;21.27;18.10;;;4.20;93.80;;;;;;5025501;28;20236;-94
2020/12/07 00:46:28;;;;;;;27.03;19.93;;;4.20;94.20;;;;;;5045451;28;20692;-93
2020/12/07 00:48:54;;;;;;;23.83;18.27;;;4.10;95.10;;;;;;5027438;28;20192;-93
2020/12/07 00:51:19;;;;;;;22.83;18.63;;;4.10;95.50;;;;;;5027381;28;20736;-94
2020/12/07 00:53:45;;;;;;;23.90;19.73;;;4.00;95.70;;;;;;5044794;28;20189;-93
2020/12/07 00:56:14;;;;;;;27.87;19.53;;;4.00;95.60;;;;;;5025093;28;20212;-94
2020/12/07 00:58:39;;;;;;;25.07;19.97;;;3.90;96.50;;;;;;5006807;28;20206;-93
2020/12/07 01:01:05;;;;;;;26.23;21.20;;;3.90;97.00;;;;;;5007152;28;20340;-93
2020/12/07 01:03:31;;;;;;;29.70;22.73;;;3.90;97.30;;;;;;5007383;28;20550;-93
2020/12/07 01:05:56;;;;;;;30.97;22.13;;;3.80;98.50;;;;;;5006864;28;20291;-92
2020/12/07 01:08:22;;;;;;;31.63;22.23;;;3.80;99.00;;;;;;5024475;28;20181;-93
2020/12/07 01:10:55;;;;;;;30.07;22.80;;;3.80;99.20;;;;;;5031525;28;20665;-93
2020/12/07 01:13:21;;;;;;;32.40;23.20;;;3.80;99.30;;;;;;5044922;28;20228;-93
2020/12/07 01:15:47;;;;;;;30.87;22.83;;;3.80;99.90;;;;;;5027329;28;20287;-94
2020/12/07 01:18:12;;;;;;;32.10;23.33;;;3.90;99.20;;;;;;5044048;28;20211;-93
2020/12/07 01:20:38;;;;;;;28.37;21.93;;;4.00;99.20;;;;;;5044278;28;20267;-94
2020/12/07 01:23:04;;;;;;;29.10;21.23;;;4.00;98.80;;;;;;5026606;28;20187;-93
2020/12/07 01:25:29;;;;;;;27.90;22.63;;;4.10;98.60;;;;;;5030479;28;20205;-94
2020/12/07 01:27:55;;;;;;;28.20;22.30;;;4.00;99.00;;;;;;5051236;28;20291;-93
2020/12/07 01:30:21;;;;;;;29.17;23.60;;;4.00;99.70;;;;;;5032646;28;20279;-93
2020/12/07 01:32:46;;;;;;;30.57;22.50;;;4.10;99.30;;;;;;5051402;28;20185;-93
2020/12/07 01:35:12;;;;;;;34.13;22.90;;;4.00;99.90;;;;;;5047995;28;20205;-93
2020/12/07 01:37:38;;;;;;;30.27;23.20;;;4.00;99.90;;;;;;5050738;28;20641;-93
2020/12/07 01:40:04;;;;;;;32.83;24.83;;;3.90;99.90;;;;;;5033389;28;20169;-94
2020/12/07 01:42:30;;;;;;;31.97;23.93;;;4.00;99.90;;;;;;5050130;28;20207;-93
2020/12/07 01:44:55;;;;;;;32.07;24.17;;;4.00;99.90;;;;;;5034631;28;20217;-93
2020/12/07 01:47:25;;;;;;;33.23;23.83;;;4.00;99.90;;;;;;5024935;28;20169;-94
2020/12/07 01:49:51;;;;;;;35.30;25.30;;;4.10;99.90;;;;;;5031761;28;20180;-93
2020/12/07 01:52:19;;;;;;;35.27;24.23;;;3.90;99.90;;;;;;5049324;28;20188;-94
2020/12/07 01:54:47;;;;;;;33.57;24.73;;;4.10;99.90;;;;;;5031750;28;20195;-93
2020/12/07 01:57:13;;;;;;;33.43;23.63;;;4.20;99.90;;;;;;5053086;28;20177;-93
2020/12/07 01:59:39;;;;;;;34.23;25.33;;;4.10;99.90;;;;;;5013909;28;20203;-95
2020/12/07 02:02:05;;;;;;;32.97;25.20;;;4.20;99.80;;;;;;5051927;28;20161;-95
2020/12/07 02:04:33;;;;;;;31.07;23.60;;;4.20;99.90;;;;;;5051105;28;20255;-93
2020/12/07 02:06:58;;;;;;;30.17;24.83;;;4.10;99.90;;;;;;5033408;28;20200;-94
2020/12/07 02:09:28;;;;;;;32.87;24.70;;;4.20;99.90;;;;;;5052250;28;20195;-93
2020/12/07 02:11:54;;;;;;;33.07;24.10;;;4.10;99.90;;;;;;5001286;28;20211;-93
2020/12/07 02:14:20;;;;;;;31.83;23.80;;;4.00;99.90;;;;;;5049550;28;20193;-93
2020/12/07 02:16:46;;;;;;;27.73;22.30;;;4.00;99.90;;;;;;5050483;28;20335;-93
2020/12/07 02:19:12;;;;;;;31.40;21.93;;;4.00;99.90;;;;;;5052563;28;20185;-93
2020/12/07 02:21:38;;;;;;;25.03;20.07;;;4.00;99.90;;;;;;5053527;28;20177;-94
2020/12/07 02:24:04;;;;;;;25.73;19.60;;;4.10;99.90;;;;;;5053820;28;20232;-94
2020/12/07 02:26:30;;;;;;;24.07;20.40;;;4.10;99.90;;;;;;5020169;28;20219;-93
2020/12/07 02:28:57;;;;;;;21.10;17.80;;;4.00;99.90;;;;;;5031148;28;20609;-94
2020/12/07 02:31:22;;;;;;;22.80;17.93;;;4.00;99.90;;;;;;5044901;28;20177;-93
2020/12/07 02:33:48;;;;;;;21.57;16.73;;;4.00;99.90;;;;;;5045127;28;20200;-94
2020/12/07 02:36:14;;;;;;;21.83;16.53;;;4.10;99.90;;;;;;5044973;28;20219;-94
2020/12/07 02:38:40;;;;;;;17.73;15.10;;;4.00;99.90;;;;;;5027159;28;20264;-94
2020/12/07 02:41:06;;;;;;;19.70;15.37;;;4.00;99.90;;;;;;5011885;28;20197;-93
2020/12/07 02:43:32;;;;;;;17.47;13.93;;;4.10;99.90;;;;;;5027811;28;20595;-93
2020/12/07 02:45:57;;;;;;;16.83;14.07;;;4.00;99.80;;;;;;5045541;28;20205;-94
2020/12/07 02:48:23;;;;;;;16.07;13.73;;;4.10;99.30;;;;;;5027110;28;20192;-93
2020/12/07 02:50:52;;;;;;;14.37;12.83;;;4.00;99.40;;;;;;5044961;28;20177;-94
2020/12/07 02:53:19;;;;;;;17.03;13.97;;;4.00;99.90;;;;;;5040342;28;20192;-93
2020/12/07 02:55:44;;;;;;;15.30;13.73;;;4.00;99.90;;;;;;5007094;28;20221;-94
2020/12/07 02:58:10;;;;;;;15.20;13.00;;;4.00;99.40;;;;;;4990657;28;20204;-92
2020/12/07 03:00:36;;;;;;;14.37;12.63;;;4.00;98.90;;;;;;4991793;28;20195;-94
2020/12/07 03:03:01;;;;;;;13.43;11.77;;;4.10;98.70;;;;;;5025579;28;20661;-94
2020/12/07 03:05:27;;;;;;;15.03;12.27;;;4.00;99.30;;;;;;5008002;28;20232;-93
2020/12/07 03:07:53;;;;;;;15.23;12.07;;;4.00;99.70;;;;;;4992065;28;20196;-93
2020/12/07 03:10:19;;;;;;;13.73;12.33;;;4.00;99.20;;;;;;5040748;28;20186;-93
2020/12/07 03:12:45;;;;;;;13.40;12.00;;;4.10;98.40;;;;;;5040790;28;20186;-94
2020/12/07 03:15:11;;;;;;;14.77;12.77;;;4.00;98.40;;;;;;5024752;28;20209;-93
2020/12/07 03:17:36;;;;;;;14.37;12.83;;;4.00;99.40;;;;;;5025618;28;20204;-92
2020/12/07 03:20:04;;;;;;;14.90;13.07;;;4.00;98.90;;;;;;5025120;28;20188;-94
2020/12/07 03:22:30;;;;;;;15.47;13.20;;;4.00;99.00;;;;;;5007750;28;20200;-94
2020/12/07 03:24:56;;;;;;;16.10;13.67;;;4.00;98.80;;;;;;5024657;28;20209;-94
2020/12/07 03:27:21;;;;;;;15.37;13.77;;;4.10;98.70;;;;;;5006122;28;20186;-95
2020/12/07 03:29:47;;;;;;;16.57;14.40;;;4.10;98.60;;;;;;5026523;28;20177;-94
2020/12/07 03:32:13;;;;;;;16.23;13.30;;;4.10;98.50;;;;;;5020087;28;20243;-94
2020/12/07 03:34:38;;;;;;;16.57;13.93;;;4.10;99.00;;;;;;5017260;28;20213;-94
2020/12/07 03:37:04;;;;;;;16.70;13.50;;;4.00;99.00;;;;;;5018926;28;20181;-93
2020/12/07 03:39:30;;;;;;;15.43;13.77;;;4.00;99.50;;;;;;5034757;28;20188;-94
2020/12/07 03:41:55;;;;;;;17.03;14.10;;;4.10;98.50;;;;;;5037811;28;20553;-94
2020/12/07 03:44:21;;;;;;;18.03;14.33;;;4.20;98.30;;;;;;5035091;28;20229;-92
2020/12/07 03:46:47;;;;;;;16.53;13.77;;;4.10;98.80;;;;;;5018660;28;20201;-94
2020/12/07 03:49:12;;;;;;;16.00;14.30;;;4.10;98.90;;;;;;5000704;28;20177;-94
2020/12/07 03:51:38;;;;;;;19.10;15.20;;;4.00;99.40;;;;;;5018908;28;20177;-94
2020/12/07 03:54:04;;;;;;;17.20;14.87;;;4.00;99.60;;;;;;5001747;28;20231;-93
2020/12/07 03:56:29;;;;;;;21.60;15.40;;;4.00;99.30;;;;;;4994467;28;20251;-94
2020/12/07 03:58:55;;;;;;;20.90;14.50;;;4.00;99.80;;;;;;5020961;28;20695;-93
2020/12/07 04:01:21;;;;;;;18.93;15.47;;;4.00;99.30;;;;;;5010110;28;20217;-94
2020/12/07 04:03:50;;;;;;;18.30;14.60;;;4.10;98.50;;;;;;5001273;28;20212;-94
2020/12/07 04:06:29;;;;;;;19.03;15.73;;;4.10;98.70;;;;;;5001104;28;20197;-93
2020/12/07 04:08:54;;;;;;;18.53;14.93;;;4.00;99.10;;;;;;5033738;28;20182;-93
2020/12/07 04:11:20;;;;;;;15.57;13.27;;;4.10;98.90;;;;;;5019722;28;20180;-94
2020/12/07 04:13:46;;;;;;;18.70;13.57;;;4.20;98.30;;;;;;5004939;28;20193;-94
2020/12/07 04:16:12;;;;;;;15.87;13.37;;;4.10;98.00;;;;;;5021954;28;20204;-93
2020/12/07 04:18:37;;;;;;;16.43;13.07;;;4.10;98.10;;;;;;5022133;28;20657;-93
2020/12/07 04:21:03;;;;;;;15.77;13.10;;;4.00;98.10;;;;;;5039580;28;20256;-93
2020/12/07 04:23:30;;;;;;;16.33;13.23;;;4.10;97.80;;;;;;5021831;28;20211;-93
2020/12/07 04:25:56;;;;;;;15.23;12.50;;;4.10;97.90;;;;;;5039492;28;20193;-93
2020/12/07 04:28:23;;;;;;;13.33;11.43;;;3.90;98.70;;;;;;5039124;28;20165;-93
2020/12/07 04:30:49;;;;;;;14.37;12.10;;;4.10;97.50;;;;;;5040716;28;20180;-94
2020/12/07 04:33:15;;;;;;;14.37;10.60;;;4.20;96.90;;;;;;5020777;28;20522;-93
2020/12/07 04:35:41;;;;;;;13.10;10.10;;;4.10;96.90;;;;;;5021440;28;20239;-94
2020/12/07 04:38:07;;;;;;;13.67;11.50;;;4.10;97.10;;;;;;5022070;28;20530;-92
2020/12/07 04:40:34;;;;;;;13.87;11.97;;;4.10;97.40;;;;;;5021152;28;20185;-93
2020/12/07 04:43:01;;;;;;;14.00;11.37;;;4.10;97.70;;;;;;5022011;28;20178;-93
2020/12/07 04:45:27;;;;;;;15.20;12.00;;;4.10;97.30;;;;;;5021822;28;20228;-94
2020/12/07 04:47:53;;;;;;;13.23;11.80;;;4.20;97.50;;;;;;5021004;28;20181;-93
2020/12/07 04:50:21;;;;;;;14.30;11.43;;;4.10;97.60;;;;;;5021228;28;20177;-93
2020/12/07 04:52:49;;;;;;;15.27;11.67;;;4.00;98.30;;;;;;5039032;28;20657;-94
2020/12/07 04:55:15;;;;;;;14.03;12.00;;;4.10;97.70;;;;;;5023514;28;20200;-92
2020/12/07 04:57:42;;;;;;;15.33;12.20;;;4.10;97.50;;;;;;5042395;28;20187;-93
2020/12/07 05:00:08;;;;;;;13.50;11.77;;;4.20;97.30;;;;;;5041714;28;20204;-93
2020/12/07 05:02:38;;;;;;;15.00;11.77;;;4.20;97.30;;;;;;5042365;28;20196;-95
2020/12/07 05:05:05;;;;;;;16.73;12.57;;;4.10;97.70;;;;;;5024623;28;20298;-94
2020/12/07 05:07:35;;;;;;;16.93;13.47;;;4.10;97.80;;;;;;5023960;28;20216;-93
2020/12/07 05:10:11;;;;;;;18.00;14.27;;;4.10;97.80;;;;;;5041979;28;20177;-94
2020/12/07 05:12:41;;;;;;;19.40;13.90;;;4.20;97.80;;;;;;5024509;28;20540;-94
2020/12/07 05:15:15;;;;;;;15.97;12.87;;;4.10;98.10;;;;;;5041781;28;21150;-93
2020/12/07 05:17:42;;;;;;;17.40;13.97;;;4.20;97.60;;;;;;5024276;28;20271;-93
2020/12/07 05:20:08;;;;;;;16.10;13.60;;;4.20;97.70;;;;;;5041717;28;20177;-92
2020/12/07 05:22:38;;;;;;;17.87;14.40;;;4.20;97.80;;;;;;5042736;28;20223;-93
2020/12/07 05:25:05;;;;;;;22.63;15.43;;;4.20;98.40;;;;;;5043828;28;20208;-93
2020/12/07 05:27:33;;;;;;;18.70;13.80;;;4.20;97.40;;;;;;5044346;28;20177;-94
2020/12/07 05:32:38;;;;;;;18.17;15.00;;;4.30;97.40;;;;;;5026884;28;20185;-93
2020/12/07 05:35:07;;;;;;;19.83;15.67;;;4.30;97.00;;;;;;5026110;28;20275;-93
2020/12/07 05:37:37;;;;;;;19.30;15.00;;;4.20;98.10;;;;;;5007565;28;20182;-93
2020/12/07 05:40:06;;;;;;;21.17;15.50;;;4.20;97.70;;;;;;4993014;28;20693;-91
2020/12/07 05:42:32;;;;;;;18.77;15.37;;;4.20;97.70;;;;;;5008320;28;20192;-91
2020/12/07 05:44:59;;;;;;;19.30;15.20;;;4.20;97.60;;;;;;5015833;28;20228;-91
2020/12/07 05:47:26;;;;;;;19.50;15.77;;;4.20;98.00;;;;;;5027181;28;20173;-93
2020/12/07 05:49:54;;;;;;;21.17;16.73;;;4.20;97.40;;;;;;5010809;28;20220;-93
2020/12/07 05:52:33;;;;;;;21.33;16.10;;;4.20;98.00;;;;;;5027147;28;20177;-92
2020/12/07 05:55:01;;;;;;;19.80;15.87;;;4.20;98.70;;;;;;5027297;28;20255;-93
2020/12/07 05:57:29;;;;;;;22.03;17.43;;;4.20;98.50;;;;;;5044537;28;20176;-93
2020/12/07 06:00:01;;;;;;;21.83;16.50;;;4.20;98.70;;;;;;5042479;28;20275;-93
2020/12/07 06:02:27;;;;;;;19.13;15.73;;;4.30;97.80;;;;;;5021751;28;20177;-93
2020/12/07 06:04:54;;;;;;;22.40;16.23;;;4.30;97.20;;;;;;5043736;28;20314;-92
2020/12/07 06:07:24;;;;;;;22.00;17.57;;;4.30;97.00;;;;;;5042948;28;20185;-92
2020/12/07 06:09:50;;;;;;;19.87;16.80;;;4.30;97.70;;;;;;5010084;28;20177;-93
2020/12/07 06:12:21;;;;;;;22.17;17.10;;;4.20;98.10;;;;;;5026320;28;20183;-92
2020/12/07 06:14:49;;;;;;;23.83;17.63;;;4.20;97.70;;;;;;5059776;28;20229;-91
2020/12/07 06:17:24;;;;;;;21.53;17.27;;;4.20;98.70;;;;;;5015202;28;20188;-92
2020/12/07 06:19:52;;;;;;;20.77;16.83;;;4.20;98.20;;;;;;5007563;28;20184;-92
2020/12/07 06:22:21;;;;;;;22.97;17.00;;;4.20;98.20;;;;;;5007485;28;20182;-92
2020/12/07 06:24:49;;;;;;;22.90;16.77;;;4.10;98.20;;;;;;5008149;28;20241;-92
2020/12/07 06:27:19;;;;;;;24.00;18.70;;;4.30;97.60;;;;;;5025720;28;20181;-92
2020/12/07 06:30:06;;;;;;;20.07;16.50;;;4.20;98.30;;;;;;5024683;28;20245;-91
2020/12/07 06:32:52;;;;;;;22.83;17.37;;;4.20;98.20;;;;;;5007729;28;20211;-92
2020/12/07 06:35:19;;;;;;;24.00;18.20;;;4.30;97.80;;;;;;5042729;28;20231;-92
2020/12/07 06:37:47;;;;;;;22.43;16.30;;;4.30;97.30;;;;;;5010011;28;20216;-93
2020/12/07 06:40:16;;;;;;;22.23;16.43;;;4.30;97.70;;;;;;5045332;28;20181;-92
2020/12/07 06:42:47;;;;;;;21.03;16.73;;;4.30;97.70;;;;;;5029966;28;20189;-92
2020/12/07 06:50:29;;;;;;;24.10;18.43;;;4.30;97.70;;;;;;5041565;28;20215;-91
2020/12/07 06:56:02;;;;;;;22.87;18.10;;;4.30;97.90;;;;;;5056168;28;20267;-93
2020/12/07 06:58:39;;;;;;;22.30;17.83;;;4.30;97.80;;;;;;5049230;28;20185;-93
2020/12/07 07:01:15;;;;;;;24.70;18.70;;;4.20;98.30;;;;;;5061512;28;20181;-92
2020/12/07 07:03:56;;;;;;;21.87;16.57;;;4.20;98.90;;;;;;5061809;28;20213;-89
2020/12/07 07:06:23;;;;;;;23.20;17.93;;;4.20;98.10;;;;;;5040278;28;20197;-89
2020/12/07 07:08:51;;;;;;;24.73;18.13;;;4.30;97.80;;;;;;5044401;28;20189;-89
2020/12/07 07:11:17;;;;;;;21.67;17.77;;;4.30;97.50;;;;;;5045290;28;20200;-89
2020/12/07 07:13:49;;;;;;;24.40;17.67;;;4.30;97.70;;;;;;5043951;28;20185;-93
2020/12/07 07:16:19;;;;;;;22.00;17.30;;;4.30;97.50;;;;;;5027258;28;20307;-93
2020/12/07 07:18:45;;;;;;;20.07;17.10;;;4.30;97.40;;;;;;5036886;28;20189;-92
2020/12/07 07:21:11;;;;;;;26.30;18.90;;;4.20;97.80;;;;;;5042327;28;20181;-94
2020/12/07 07:23:38;;;;;;;22.03;18.63;;;4.20;98.10;;;;;;5043279;28;20193;-93
2020/12/07 07:26:33;;;;;;;23.30;18.00;;;4.20;98.20;;;;;;5041335;28;20196;-92
2020/12/07 07:29:04;;;;;;;25.13;19.10;;;4.20;98.40;;;;;;5020661;28;20260;-93
2020/12/07 07:31:30;;;;;;;24.03;18.73;;;4.10;99.20;;;;;;5038124;28;20181;-92
2020/12/07 07:33:56;;;;;;;22.67;18.00;;;4.20;98.10;;;;;;5036290;28;20284;-92
2020/12/07 07:36:24;;;;;;;27.97;19.67;;;4.30;98.10;;;;;;5023904;28;20892;-92
2020/12/07 07:39:00;;;;;;;23.73;19.47;;;4.20;99.10;;;;;;5027924;28;20189;-92
2020/12/07 07:41:27;;;;;;;20.97;17.77;;;4.20;98.50;;;;;;5037420;28;20184;-92
2020/12/07 07:43:55;;;;;;;22.07;17.97;;;4.30;97.80;;;;;;5036705;28;20209;-90
2020/12/07 07:46:22;;;;;;;20.13;16.97;;;4.40;97.40;;;;;;5038798;28;20193;-92
2020/12/07 07:54:58;;;;;;;22.20;17.10;;;4.60;95.70;;;;;;5032438;28;20196;-92
2020/12/07 08:12:01;;;;;;;21.30;17.37;;;4.70;95.10;;;;;;5029513;28;20181;-91
2020/12/07 08:16:57;;;;;;;22.83;18.63;;;4.80;94.20;;;;;;5021429;28;20204;-93
2020/12/07 08:19:25;;;;;;;23.23;18.17;;;4.70;95.10;;;;;;5037122;28;20272;-93
2020/12/07 08:21:52;;;;;;;24.40;17.70;;;4.50;95.30;;;;;;5047967;28;20189;-92
2020/12/07 08:24:17;;;;;;;23.23;18.00;;;4.60;96.00;;;;;;5058129;28;20208;-92
2020/12/07 08:26:44;;;;;;;23.97;18.87;;;4.60;95.30;;;;;;5030838;28;20204;-92
2020/12/07 08:29:11;;;;;;;25.70;18.73;;;4.70;94.30;;;;;;5037476;28;20185;-93
2020/12/07 08:31:38;;;;;;;22.97;18.43;;;4.60;95.10;;;;;;5052014;28;20202;-92
2020/12/07 08:34:15;;;;;;;23.63;18.07;;;4.70;94.20;;;;;;5059589;28;20184;-92
2020/12/07 08:36:45;;;;;;;22.93;17.47;;;4.70;94.70;;;;;;5052081;28;20208;-90
2020/12/07 08:39:12;;;;;;;19.97;16.67;;;4.60;95.00;;;;;;5051962;28;20202;-90
2020/12/07 08:41:38;;;;;;;19.73;16.23;;;4.80;93.70;;;;;;5048955;28;20181;-91
2020/12/07 08:44:10;;;;;;;24.20;17.53;;;4.80;93.90;;;;;;5053774;28;20212;-91
2020/12/07 08:46:37;;;;;;;21.67;17.33;;;4.70;94.40;;;;;;5059012;28;20224;-91
2020/12/07 08:49:05;;;;;;;21.90;18.30;;;4.80;93.90;;;;;;5039216;28;20204;-92
2020/12/07 08:51:32;;;;;;;21.70;17.10;;;4.70;94.50;;;;;;5037614;28;20186;-90
2020/12/07 08:53:59;;;;;;;19.60;16.73;;;4.80;93.70;;;;;;5027898;28;20201;-91
2020/12/07 08:56:25;;;;;;;19.40;16.87;;;4.80;93.00;;;;;;5024521;28;20212;-92
2020/12/07 08:58:51;;;;;;;20.13;17.37;;;4.80;93.70;;;;;;5026169;28;20178;-90
2020/12/07 09:01:16;;;;;;;19.60;16.87;;;4.80;93.00;;;;;;5027175;28;20197;-91
2020/12/07 09:03:44;;;;;;;19.93;17.83;;;4.90;92.70;;;;;;5063970;28;20244;-91
2020/12/07 09:06:12;;;;;;;19.53;16.47;;;4.90;93.50;;;;;;5077376;28;20697;-91
2020/12/07 09:08:39;;;;;;;22.20;17.70;;;4.70;93.50;;;;;;5078420;28;20587;-92
2020/12/07 09:11:10;;;;;;;23.53;17.73;;;4.90;92.70;;;;;;5061556;28;20276;-91
2020/12/07 09:13:36;;;;;;;20.77;15.53;;;5.00;92.60;;;;;;5064320;28;20192;-92
2020/12/07 09:16:04;;;;;;;18.97;15.80;;;5.00;91.10;;;;;;5064605;28;20207;-93
2020/12/07 09:18:30;;;;;;;19.50;14.77;;;5.10;91.70;;;;;;5054920;28;20265;-92
2020/12/07 09:20:56;;;;;;;18.57;15.50;;;5.10;92.80;;;;;;5037363;28;20652;-90
2020/12/07 09:23:24;;;;;;;18.73;15.47;;;5.20;91.00;;;;;;5056876;28;20176;-90
2020/12/07 09:25:51;;;;;;;18.77;14.47;;;5.20;91.10;;;;;;5053978;28;20197;-91
2020/12/07 09:28:17;;;;;;;20.00;14.23;;;5.30;90.50;;;;;;5050445;28;20180;-90
2020/12/07 09:30:53;;;;;;;16.43;13.33;;;5.40;90.20;;;;;;5044117;28;20185;-89
2020/12/07 09:33:20;;;;;;;16.50;13.90;;;5.40;90.00;;;;;;5036152;28;20189;-90
2020/12/07 09:35:46;;;;;;;14.37;12.53;;;5.50;89.10;;;;;;5023316;28;20205;-89
2020/12/07 09:38:12;;;;;;;17.73;14.60;;;5.50;89.40;;;;;;5024478;28;20208;-88
2020/12/07 09:40:38;;;;;;;17.03;13.27;;;5.50;89.60;;;;;;5054892;28;20181;-88
2020/12/07 09:43:04;;;;;;;16.30;13.33;;;5.70;88.50;;;;;;5035205;28;20189;-90
2020/12/07 09:45:30;;;;;;;15.23;13.23;;;5.80;87.10;;;;;;5061409;28;20231;-89
2020/12/07 09:47:57;;;;;;;14.50;12.70;;;5.90;87.60;;;;;;5040180;28;20188;-89
2020/12/07 09:50:23;;;;;;;15.27;12.27;;;5.80;86.50;;;;;;5058406;28;20200;-89
2020/12/07 09:52:49;;;;;;;15.27;12.87;;;5.90;87.50;;;;;;5051140;28;20202;-89
2020/12/07 09:55:14;;;;;;;15.60;12.50;;;5.90;87.40;;;;;;5053635;28;20204;-90
2020/12/07 09:57:42;;;;;;;14.37;12.13;;;5.90;87.90;;;;;;5044529;28;20189;-90
2020/12/07 10:00:08;;;;;;;14.37;11.37;;;6.00;85.50;;;;;;5042403;28;20498;-88
2020/12/07 10:02:35;;;;;;;13.30;11.10;;;5.90;84.90;;;;;;5050808;28;20188;-91
2020/12/07 10:05:01;;;;;;;16.27;12.20;;;5.90;85.10;;;;;;5054130;28;20253;-90
2020/12/07 10:07:27;;;;;;;12.93;11.20;;;5.70;87.30;;;;;;5045047;28;20184;-90
2020/12/07 10:09:53;;;;;;;15.77;11.80;;;5.80;86.00;;;;;;5062938;28;20180;-90
2020/12/07 10:12:18;;;;;;;14.67;11.47;;;5.90;85.80;;;;;;5062484;28;20183;-90
2020/12/07 10:14:44;;;;;;;13.17;11.70;;;6.00;86.80;;;;;;5044432;28;20189;-90
2020/12/07 10:17:10;;;;;;;13.97;10.80;;;6.10;84.70;;;;;;5045266;28;20180;-90
2020/12/07 10:19:36;;;;;;;11.50;9.87;;;6.20;83.80;;;;;;5002041;28;20190;-89
2020/12/07 10:22:04;;;;;;;13.27;10.03;;;6.20;82.90;;;;;;5042184;28;20177;-90
2020/12/07 10:24:34;;;;;;;13.47;10.87;;;6.10;84.70;;;;;;5074684;28;20213;-89
2020/12/07 10:27:01;;;;;;;12.67;10.80;;;6.20;83.50;;;;;;5058495;28;20340;-90
2020/12/07 10:29:27;;;;;;;12.27;10.97;;;6.40;83.60;;;;;;5025640;28;20181;-90
2020/12/07 10:31:55;;;;;;;12.53;10.40;;;6.50;81.90;;;;;;5043981;28;20240;-89
2020/12/07 10:34:21;;;;;;;12.20;10.90;;;6.40;80.90;;;;;;5038985;28;20177;-88
2020/12/07 10:36:48;;;;;;;11.73;9.67;;;6.40;81.20;;;;;;5054787;28;20223;-90
2020/12/07 10:39:14;;;;;;;14.97;10.93;;;6.30;81.80;;;;;;5047820;28;20529;-90
2020/12/07 10:41:40;;;;;;;11.70;10.50;;;6.20;81.90;;;;;;5045324;28;20176;-90
2020/12/07 10:44:06;;;;;;;13.10;9.70;;;6.30;81.20;;;;;;5050484;28;20763;-89
2020/12/07 10:46:32;;;;;;;14.10;10.83;;;6.20;82.10;;;;;;5046395;28;20201;-89
2020/12/07 10:48:59;;;;;;;11.87;10.47;;;6.00;81.80;;;;;;5051823;28;20209;-89
2020/12/07 10:51:27;;;;;;;11.87;9.67;;;6.00;83.20;;;;;;5038100;28;20190;-89
2020/12/07 10:53:53;;;;;;;12.77;10.73;;;6.00;82.10;;;;;;5035489;28;20954;-89
2020/12/07 10:56:19;;;;;;;11.50;9.70;;;6.10;81.50;;;;;;5015930;28;20215;-88
2020/12/07 10:58:45;;;;;;;13.33;10.27;;;6.10;81.70;;;;;;5063688;28;20213;-88
2020/12/07 11:01:11;;;;;;;13.07;10.40;;;6.00;81.00;;;;;;5056012;28;20189;-87
2020/12/07 11:03:37;;;;;;;11.47;10.20;;;6.00;80.60;;;;;;5045212;28;20213;-87
2020/12/07 11:06:12;;;;;;;10.90;9.07;;;6.00;80.80;;;;;;5027248;28;20205;-88
2020/12/07 11:08:48;;;;;;;14.93;10.63;;;6.00;81.10;;;;;;5039804;28;20644;-89
2020/12/07 11:11:14;;;;;;;12.27;9.80;;;6.40;80.30;;;;;;5028356;28;20185;-89
2020/12/07 11:13:39;;;;;;;10.50;9.10;;;6.80;78.10;;;;;;5042312;28;20250;-90
2020/12/07 11:16:09;;;;;;;19.27;9.67;;;7.00;75.90;;;;;;5056454;28;20600;-88
2020/12/07 11:18:36;;;;;;;13.37;10.87;;;7.20;76.50;;;;;;5062424;28;20188;-89
2020/12/07 11:21:03;;;;;;;11.07;9.80;;;6.80;76.80;;;;;;5059034;28;20572;-91
2020/12/07 11:23:29;;;;;;;13.03;9.97;;;6.60;77.10;;;;;;5047317;28;20276;-89
2020/12/07 11:25:54;;;;;;;13.50;10.17;;;6.60;77.30;;;;;;5047759;28;20205;-89
2020/12/07 11:28:20;;;;;;;13.30;10.83;;;6.40;79.40;;;;;;5052516;28;20188;-91
2020/12/07 11:30:46;;;;;;;13.53;10.30;;;6.50;78.70;;;;;;5067993;28;20246;-91
2020/12/07 11:33:12;;;;;;;13.00;10.17;;;6.50;77.90;;;;;;5058238;28;20641;-91
2020/12/07 11:35:37;;;;;;;13.90;10.37;;;6.50;78.60;;;;;;5015205;28;20213;-91
2020/12/07 11:38:16;;;;;;;11.67;10.10;;;6.30;79.40;;;;;;5056515;28;20231;-92
2020/12/07 11:46:29;;;;;;;12.50;10.30;;;6.40;78.70;;;;;;5073652;28;20243;-88
2020/12/07 11:48:55;;;;;;;10.77;9.67;;;6.50;79.50;;;;;;5053176;28;20188;-87
2020/12/07 11:51:27;;;;;;;12.53;10.57;;;6.40;79.00;;;;;;5061109;28;20181;-87
2020/12/07 11:53:55;;;;;;;12.30;11.00;;;6.40;78.90;;;;;;5064243;28;20172;-88
2020/12/07 11:56:28;;;;;;;12.40;10.30;;;6.30;79.00;;;;;;5070114;28;20299;-89
2020/12/07 11:58:54;;;;;;;12.10;10.80;;;6.30;79.90;;;;;;5075099;28;20216;-88
2020/12/07 12:01:20;;;;;;;11.90;10.60;;;6.30;80.00;;;;;;5043105;28;20196;-89
2020/12/07 12:03:46;;;;;;;12.83;10.77;;;6.40;80.50;;;;;;5048965;28;20237;-88
2020/12/07 12:06:20;;;;;;;14.37;11.20;;;6.40;79.90;;;;;;5067247;28;20208;-89
2020/12/07 12:08:46;;;;;;;13.53;11.43;;;6.50;79.20;;;;;;5062394;28;20181;-90
2020/12/07 12:11:12;;;;;;;12.60;10.60;;;6.60;78.80;;;;;;5018577;28;20203;-88
2020/12/07 12:13:37;;;;;;;13.23;11.30;;;7.00;77.40;;;;;;5047647;28;20192;-89
2020/12/07 12:16:03;;;;;;;11.90;10.03;;;7.30;76.80;;;;;;5067013;28;20207;-89
2020/12/07 12:18:29;;;;;;;14.13;11.10;;;7.20;76.50;;;;;;5066764;28;20195;-88
2020/12/07 12:20:55;;;;;;;13.77;12.27;;;7.00;77.60;;;;;;5057518;28;20169;-89
2020/12/07 12:23:21;;;;;;;14.47;11.47;;;6.90;78.30;;;;;;5073567;28;20211;-87
2020/12/07 12:25:46;;;;;;;13.73;10.73;;;6.80;78.70;;;;;;5073627;28;20220;-87
2020/12/07 12:28:12;;;;;;;11.17;9.90;;;6.80;78.50;;;;;;5027901;28;20192;-89
2020/12/07 12:30:40;;;;;;;10.97;9.00;;;6.80;77.80;;;;;;5040424;28;20275;-90
2020/12/07 12:33:08;;;;;;;12.57;11.27;;;6.90;77.00;;;;;;5029400;28;20240;-89
2020/12/07 12:35:35;;;;;;;11.73;10.53;;;6.70;78.60;;;;;;5056097;28;20571;-88
2020/12/07 12:38:01;;;;;;;23.47;21.00;;;6.80;78.40;;;;;;5039974;28;20252;-88
2020/12/07 12:40:27;;;;;;;100.97;85.23;;;6.80;78.90;;;;;;5024048;28;20190;-88
2020/12/07 12:42:53;;;;;;;26.20;20.67;;;7.00;77.20;;;;;;5007569;28;20194;-88
2020/12/07 12:45:18;;;;;;;15.50;13.30;;;7.10;77.10;;;;;;5024060;28;20217;-87
2020/12/07 12:47:44;;;;;;;81.13;66.70;;;7.20;76.90;;;;;;5039998;28;20248;-90
2020/12/07 12:50:10;;;;;;;26.07;21.20;;;7.30;75.60;;;;;;5049039;28;20268;-89
2020/12/07 12:52:38;;;;;;;12.83;11.43;;;7.40;75.90;;;;;;5049497;28;20184;-89
2020/12/07 12:55:03;;;;;;;12.37;11.07;;;7.20;77.00;;;;;;5047498;28;20224;-89
2020/12/07 12:57:29;;;;;;;15.07;13.37;;;7.20;75.80;;;;;;5059287;28;20177;-89
2020/12/07 12:59:55;;;;;;;11.40;10.03;;;7.00;76.90;;;;;;5026757;28;20204;-89
2020/12/07 13:02:21;;;;;;;12.90;11.67;;;6.90;77.10;;;;;;5046524;28;20192;-89
2020/12/07 13:04:46;;;;;;;12.37;11.17;;;7.10;77.50;;;;;;5049844;28;20204;-89
2020/12/07 13:07:12;;;;;;;13.30;11.47;;;7.20;76.30;;;;;;5049988;28;20223;-88
2020/12/07 13:09:38;;;;;;;10.70;9.60;;;7.00;76.90;;;;;;5025418;28;20181;-89
2020/12/07 13:12:04;;;;;;;12.73;11.43;;;7.00;76.50;;;;;;5045466;28;20181;-89
2020/12/07 13:14:29;;;;;;;10.77;9.67;;;7.00;76.70;;;;;;5041449;28;20185;-89
2020/12/07 13:17:11;;;;;;;11.97;10.67;;;7.00;76.30;;;;;;5040622;28;20209;-88